sensor_id;sensor_type;location;lat;lon;timestamp;P1;durP1;ratioP1;P2;durP2;ratioP2
79403;SDS011;68858;48.642;9.142;2024-01-15T00:01:10;17.13;;;10.40;;
79403;SDS011;68858;48.642;9.142;2024-01-15T00:03:35;20.87;;;10.93;;
79403;SDS011;68858;48.642;9.142;2024-01-15T00:06:00;17.80;;;10.43;;
79403;SDS011;68858;48.642;9.142;2024-01-15T00:08:27;17.17;;;9.73;;
79403;SDS011;68858;48.642;9.142;2024-01-15T00:10:52;17.57;;;9.67;;
79403;SDS011;68858;48.642;9.142;2024-01-15T00:13:19;17.83;;;9.87;;
79403;SDS011;68858;48.642;9.142;2024-01-15T00:15:44;17.77;;;9.70;;
79403;SDS011;68858;48.642;9.142;2024-01-15T00:18:09;16.00;;;8.77;;
79403;SDS011;68858;48.642;9.142;2024-01-15T00:20:35;15.60;;;9.53;;
79403;SDS011;68858;48.642;9.142;2024-01-15T00:23:00;14.67;;;9.60;;
79403;SDS011;68858;48.642;9.142;2024-01-15T00:25:26;18.60;;;9.83;;
79403;SDS011;68858;48.642;9.142;2024-01-15T00:27:51;17.50;;;9.23;;
79403;SDS011;68858;48.642;9.142;2024-01-15T00:30:16;16.53;;;10.00;;
79403;SDS011;68858;48.642;9.142;2024-01-15T00:32:42;16.37;;;9.23;;
79403;SDS011;68858;48.642;9.142;2024-01-15T00:35:07;16.73;;;9.70;;
79403;SDS011;68858;48.642;9.142;2024-01-15T00:37:33;15.20;;;9.33;;
79403;SDS011;68858;48.642;9.142;2024-01-15T00:39:58;16.43;;;8.90;;
79403;SDS011;68858;48.642;9.142;2024-01-15T00:42:24;15.50;;;8.90;;
79403;SDS011;68858;48.642;9.142;2024-01-15T00:44:49;14.50;;;8.47;;
79403;SDS011;68858;48.642;9.142;2024-01-15T00:47:14;16.23;;;8.70;;
79403;SDS011;68858;48.642;9.142;2024-01-15T00:49:40;15.93;;;9.30;;
79403;SDS011;68858;48.642;9.142;2024-01-15T00:52:06;15.00;;;9.10;;
79403;SDS011;68858;48.642;9.142;2024-01-15T00:54:32;15.10;;;8.80;;
79403;SDS011;68858;48.642;9.142;2024-01-15T00:56:57;16.13;;;9.00;;
79403;SDS011;68858;48.642;9.142;2024-01-15T00:59:23;16.37;;;9.50;;
79403;SDS011;68858;48.642;9.142;2024-01-15T01:01:48;15.27;;;9.10;;
79403;SDS011;68858;48.642;9.142;2024-01-15T01:04:13;16.13;;;9.33;;
79403;SDS011;68858;48.642;9.142;2024-01-15T01:06:39;14.73;;;8.90;;
79403;SDS011;68858;48.642;9.142;2024-01-15T01:09:05;13.63;;;8.93;;
79403;SDS011;68858;48.642;9.142;2024-01-15T01:11:30;14.67;;;9.20;;
79403;SDS011;68858;48.642;9.142;2024-01-15T01:13:56;15.53;;;9.70;;
79403;SDS011;68858;48.642;9.142;2024-01-15T01:16:22;14.53;;;8.50;;
79403;SDS011;68858;48.642;9.142;2024-01-15T01:18:47;14.00;;;8.53;;
79403;SDS011;68858;48.642;9.142;2024-01-15T01:21:14;15.03;;;8.73;;
79403;SDS011;68858;48.642;9.142;2024-01-15T01:23:39;14.97;;;8.47;;
79403;SDS011;68858;48.642;9.142;2024-01-15T01:26:07;16.20;;;8.60;;
79403;SDS011;68858;48.642;9.142;2024-01-15T01:28:32;14.37;;;8.70;;
79403;SDS011;68858;48.642;9.142;2024-01-15T01:30:57;14.20;;;8.17;;
79403;SDS011;68858;48.642;9.142;2024-01-15T01:33:23;15.70;;;8.80;;
79403;SDS011;68858;48.642;9.142;2024-01-15T01:35:49;14.60;;;9.00;;
79403;SDS011;68858;48.642;9.142;2024-01-15T01:38:15;15.43;;;8.03;;
79403;SDS011;68858;48.642;9.142;2024-01-15T01:40:40;15.20;;;8.87;;
79403;SDS011;68858;48.642;9.142;2024-01-15T01:43:05;13.77;;;8.70;;
79403;SDS011;68858;48.642;9.142;2024-01-15T01:45:31;13.27;;;7.80;;
79403;SDS011;68858;48.642;9.142;2024-01-15T01:47:56;16.27;;;8.43;;
79403;SDS011;68858;48.642;9.142;2024-01-15T01:50:23;12.30;;;7.20;;
79403;SDS011;68858;48.642;9.142;2024-01-15T01:52:49;15.03;;;8.33;;
79403;SDS011;68858;48.642;9.142;2024-01-15T01:55:14;17.17;;;9.03;;
79403;SDS011;68858;48.642;9.142;2024-01-15T01:57:41;14.23;;;8.30;;
79403;SDS011;68858;48.642;9.142;2024-01-15T02:00:08;16.33;;;8.27;;
79403;SDS011;68858;48.642;9.142;2024-01-15T02:02:34;13.53;;;8.27;;
79403;SDS011;68858;48.642;9.142;2024-01-15T02:04:59;16.57;;;9.20;;
79403;SDS011;68858;48.642;9.142;2024-01-15T02:07:25;16.17;;;9.37;;
79403;SDS011;68858;48.642;9.142;2024-01-15T02:09:52;16.67;;;8.43;;
79403;SDS011;68858;48.642;9.142;2024-01-15T02:12:17;15.13;;;9.10;;
79403;SDS011;68858;48.642;9.142;2024-01-15T02:14:43;12.80;;;7.50;;
79403;SDS011;68858;48.642;9.142;2024-01-15T02:17:08;13.80;;;8.00;;
79403;SDS011;68858;48.642;9.142;2024-01-15T02:19:33;12.97;;;8.03;;
79403;SDS011;68858;48.642;9.142;2024-01-15T02:21:59;13.60;;;8.73;;
79403;SDS011;68858;48.642;9.142;2024-01-15T02:24:24;14.10;;;8.23;;
79403;SDS011;68858;48.642;9.142;2024-01-15T02:26:50;15.43;;;9.43;;
79403;SDS011;68858;48.642;9.142;2024-01-15T02:29:16;17.27;;;9.90;;
79403;SDS011;68858;48.642;9.142;2024-01-15T02:31:41;15.47;;;8.63;;
79403;SDS011;68858;48.642;9.142;2024-01-15T02:34:07;14.07;;;8.43;;
79403;SDS011;68858;48.642;9.142;2024-01-15T02:36:33;13.63;;;8.30;;
79403;SDS011;68858;48.642;9.142;2024-01-15T02:39:00;14.77;;;8.33;;
79403;SDS011;68858;48.642;9.142;2024-01-15T02:41:25;15.63;;;8.90;;
79403;SDS011;68858;48.642;9.142;2024-01-15T02:43:50;16.73;;;8.77;;
79403;SDS011;68858;48.642;9.142;2024-01-15T02:46:16;16.70;;;9.47;;
79403;SDS011;68858;48.642;9.142;2024-01-15T02:48:41;14.03;;;8.23;;
79403;SDS011;68858;48.642;9.142;2024-01-15T02:51:06;16.33;;;9.10;;
79403;SDS011;68858;48.642;9.142;2024-01-15T02:53:32;14.63;;;7.97;;
79403;SDS011;68858;48.642;9.142;2024-01-15T02:55:57;14.03;;;8.23;;
79403;SDS011;68858;48.642;9.142;2024-01-15T02:58:23;17.57;;;9.00;;
79403;SDS011;68858;48.642;9.142;2024-01-15T03:00:48;13.47;;;7.73;;
79403;SDS011;68858;48.642;9.142;2024-01-15T03:03:13;15.10;;;8.33;;
79403;SDS011;68858;48.642;9.142;2024-01-15T03:05:40;13.83;;;8.17;;
79403;SDS011;68858;48.642;9.142;2024-01-15T03:08:05;13.93;;;8.23;;
79403;SDS011;68858;48.642;9.142;2024-01-15T03:10:31;14.97;;;8.87;;
79403;SDS011;68858;48.642;9.142;2024-01-15T03:13:02;14.80;;;9.37;;
79403;SDS011;68858;48.642;9.142;2024-01-15T03:15:28;15.77;;;8.70;;
79403;SDS011;68858;48.642;9.142;2024-01-15T03:17:53;15.10;;;8.87;;
79403;SDS011;68858;48.642;9.142;2024-01-15T03:20:19;14.43;;;8.40;;
79403;SDS011;68858;48.642;9.142;2024-01-15T03:22:44;15.87;;;8.37;;
79403;SDS011;68858;48.642;9.142;2024-01-15T03:25:09;13.03;;;7.63;;
79403;SDS011;68858;48.642;9.142;2024-01-15T03:27:35;14.73;;;8.47;;
79403;SDS011;68858;48.642;9.142;2024-01-15T03:30:01;15.50;;;8.50;;
79403;SDS011;68858;48.642;9.142;2024-01-15T03:32:28;12.77;;;7.80;;
79403;SDS011;68858;48.642;9.142;2024-01-15T03:34:54;14.10;;;7.53;;
79403;SDS011;68858;48.642;9.142;2024-01-15T03:37:19;14.60;;;7.60;;
79403;SDS011;68858;48.642;9.142;2024-01-15T03:39:45;14.87;;;8.43;;
79403;SDS011;68858;48.642;9.142;2024-01-15T03:42:11;13.33;;;7.67;;
79403;SDS011;68858;48.642;9.142;2024-01-15T03:44:37;15.63;;;8.47;;
79403;SDS011;68858;48.642;9.142;2024-01-15T03:47:02;15.37;;;8.17;;
79403;SDS011;68858;48.642;9.142;2024-01-15T03:49:28;14.50;;;8.20;;
79403;SDS011;68858;48.642;9.142;2024-01-15T03:51:53;13.33;;;7.70;;
79403;SDS011;68858;48.642;9.142;2024-01-15T03:54:20;13.77;;;8.07;;
79403;SDS011;68858;48.642;9.142;2024-01-15T03:56:46;12.40;;;7.77;;
79403;SDS011;68858;48.642;9.142;2024-01-15T03:59:12;15.83;;;7.63;;
79403;SDS011;68858;48.642;9.142;2024-01-15T04:01:37;13.23;;;7.93;;
79403;SDS011;68858;48.642;9.142;2024-01-15T04:04:04;15.03;;;7.47;;
79403;SDS011;68858;48.642;9.142;2024-01-15T04:06:31;15.17;;;8.23;;
79403;SDS011;68858;48.642;9.142;2024-01-15T04:08:56;14.43;;;8.80;;
79403;SDS011;68858;48.642;9.142;2024-01-15T04:11:23;15.73;;;8.53;;
79403;SDS011;68858;48.642;9.142;2024-01-15T04:13:49;17.30;;;9.53;;
79403;SDS011;68858;48.642;9.142;2024-01-15T04:16:15;16.77;;;9.77;;
79403;SDS011;68858;48.642;9.142;2024-01-15T04:18:40;21.80;;;12.23;;
79403;SDS011;68858;48.642;9.142;2024-01-15T04:21:06;16.63;;;9.37;;
79403;SDS011;68858;48.642;9.142;2024-01-15T04:23:34;16.00;;;9.30;;
79403;SDS011;68858;48.642;9.142;2024-01-15T04:26:00;18.67;;;10.20;;
79403;SDS011;68858;48.642;9.142;2024-01-15T04:28:25;17.00;;;9.87;;
79403;SDS011;68858;48.642;9.142;2024-01-15T04:30:50;16.03;;;9.57;;
79403;SDS011;68858;48.642;9.142;2024-01-15T04:33:16;16.20;;;9.30;;
79403;SDS011;68858;48.642;9.142;2024-01-15T04:35:41;16.40;;;8.37;;
79403;SDS011;68858;48.642;9.142;2024-01-15T04:38:07;14.47;;;8.70;;
79403;SDS011;68858;48.642;9.142;2024-01-15T04:40:32;15.83;;;8.53;;
79403;SDS011;68858;48.642;9.142;2024-01-15T04:42:57;17.53;;;9.43;;
79403;SDS011;68858;48.642;9.142;2024-01-15T04:45:24;13.37;;;8.33;;
79403;SDS011;68858;48.642;9.142;2024-01-15T04:47:54;17.83;;;10.37;;
79403;SDS011;68858;48.642;9.142;2024-01-15T04:50:21;20.70;;;12.03;;
79403;SDS011;68858;48.642;9.142;2024-01-15T04:52:46;17.87;;;10.13;;
79403;SDS011;68858;48.642;9.142;2024-01-15T04:55:12;17.37;;;9.07;;
79403;SDS011;68858;48.642;9.142;2024-01-15T04:57:37;16.23;;;9.07;;
79403;SDS011;68858;48.642;9.142;2024-01-15T05:00:03;15.43;;;8.37;;
79403;SDS011;68858;48.642;9.142;2024-01-15T05:02:30;14.93;;;8.80;;
79403;SDS011;68858;48.642;9.142;2024-01-15T05:04:58;16.93;;;9.00;;
79403;SDS011;68858;48.642;9.142;2024-01-15T05:07:23;16.77;;;11.47;;
79403;SDS011;68858;48.642;9.142;2024-01-15T05:09:49;19.10;;;10.90;;
79403;SDS011;68858;48.642;9.142;2024-01-15T05:12:15;17.93;;;10.53;;
79403;SDS011;68858;48.642;9.142;2024-01-15T05:14:42;15.53;;;10.10;;
79403;SDS011;68858;48.642;9.142;2024-01-15T05:17:07;18.13;;;10.80;;
79403;SDS011;68858;48.642;9.142;2024-01-15T05:19:32;17.67;;;10.30;;
79403;SDS011;68858;48.642;9.142;2024-01-15T05:21:58;20.90;;;9.93;;
79403;SDS011;68858;48.642;9.142;2024-01-15T05:24:23;21.27;;;10.47;;
79403;SDS011;68858;48.642;9.142;2024-01-15T05:26:51;15.70;;;9.33;;
79403;SDS011;68858;48.642;9.142;2024-01-15T05:29:17;18.70;;;10.20;;
79403;SDS011;68858;48.642;9.142;2024-01-15T05:31:43;15.83;;;9.83;;
79403;SDS011;68858;48.642;9.142;2024-01-15T05:34:09;15.90;;;9.63;;
79403;SDS011;68858;48.642;9.142;2024-01-15T05:36:34;17.50;;;10.13;;
79403;SDS011;68858;48.642;9.142;2024-01-15T05:38:59;15.67;;;9.33;;
79403;SDS011;68858;48.642;9.142;2024-01-15T05:41:25;18.63;;;10.50;;
79403;SDS011;68858;48.642;9.142;2024-01-15T05:43:53;17.30;;;8.83;;
79403;SDS011;68858;48.642;9.142;2024-01-15T05:46:19;17.57;;;8.83;;
79403;SDS011;68858;48.642;9.142;2024-01-15T05:48:48;16.63;;;10.07;;
79403;SDS011;68858;48.642;9.142;2024-01-15T05:51:13;17.20;;;9.70;;
79403;SDS011;68858;48.642;9.142;2024-01-15T05:53:39;15.13;;;9.63;;
79403;SDS011;68858;48.642;9.142;2024-01-15T05:56:06;15.50;;;9.10;;
79403;SDS011;68858;48.642;9.142;2024-01-15T05:58:32;15.20;;;9.57;;
79403;SDS011;68858;48.642;9.142;2024-01-15T06:00:57;16.00;;;9.13;;
79403;SDS011;68858;48.642;9.142;2024-01-15T06:03:23;16.90;;;9.40;;
79403;SDS011;68858;48.642;9.142;2024-01-15T06:05:48;17.93;;;10.00;;
79403;SDS011;68858;48.642;9.142;2024-01-15T06:08:13;16.03;;;10.23;;
79403;SDS011;68858;48.642;9.142;2024-01-15T06:10:39;17.80;;;9.97;;
79403;SDS011;68858;48.642;9.142;2024-01-15T06:13:05;17.03;;;10.00;;
79403;SDS011;68858;48.642;9.142;2024-01-15T06:15:31;18.07;;;11.03;;
79403;SDS011;68858;48.642;9.142;2024-01-15T06:17:57;16.80;;;10.63;;
79403;SDS011;68858;48.642;9.142;2024-01-15T06:20:23;17.27;;;9.63;;
79403;SDS011;68858;48.642;9.142;2024-01-15T06:22:48;18.13;;;10.47;;
79403;SDS011;68858;48.642;9.142;2024-01-15T06:25:13;17.33;;;10.23;;
79403;SDS011;68858;48.642;9.142;2024-01-15T06:27:39;17.03;;;10.37;;
79403;SDS011;68858;48.642;9.142;2024-01-15T06:30:05;18.07;;;11.03;;
79403;SDS011;68858;48.642;9.142;2024-01-15T06:32:30;20.60;;;11.37;;
79403;SDS011;68858;48.642;9.142;2024-01-15T06:34:56;16.67;;;10.63;;
79403;SDS011;68858;48.642;9.142;2024-01-15T06:37:21;17.13;;;10.13;;
79403;SDS011;68858;48.642;9.142;2024-01-15T06:39:47;14.73;;;9.23;;
79403;SDS011;68858;48.642;9.142;2024-01-15T06:42:12;14.73;;;8.80;;
79403;SDS011;68858;48.642;9.142;2024-01-15T06:44:38;14.30;;;9.17;;
79403;SDS011;68858;48.642;9.142;2024-01-15T06:47:03;14.83;;;9.17;;
79403;SDS011;68858;48.642;9.142;2024-01-15T06:49:29;16.77;;;8.73;;
79403;SDS011;68858;48.642;9.142;2024-01-15T06:51:56;14.77;;;9.50;;
79403;SDS011;68858;48.642;9.142;2024-01-15T06:54:21;12.87;;;8.77;;
79403;SDS011;68858;48.642;9.142;2024-01-15T06:56:46;14.57;;;9.30;;
79403;SDS011;68858;48.642;9.142;2024-01-15T06:59:13;15.40;;;8.93;;
79403;SDS011;68858;48.642;9.142;2024-01-15T07:01:38;13.33;;;9.10;;
79403;SDS011;68858;48.642;9.142;2024-01-15T07:04:04;16.67;;;9.60;;
79403;SDS011;68858;48.642;9.142;2024-01-15T07:06:29;16.20;;;9.33;;
79403;SDS011;68858;48.642;9.142;2024-01-15T07:08:59;15.53;;;9.10;;
79403;SDS011;68858;48.642;9.142;2024-01-15T07:11:24;12.40;;;7.90;;
79403;SDS011;68858;48.642;9.142;2024-01-15T07:13:50;15.70;;;9.43;;
79403;SDS011;68858;48.642;9.142;2024-01-15T07:16:15;12.87;;;7.50;;
79403;SDS011;68858;48.642;9.142;2024-01-15T07:18:41;13.80;;;7.53;;
79403;SDS011;68858;48.642;9.142;2024-01-15T07:21:06;13.70;;;8.27;;
79403;SDS011;68858;48.642;9.142;2024-01-15T07:23:33;12.23;;;7.83;;
79403;SDS011;68858;48.642;9.142;2024-01-15T07:25:59;12.30;;;8.40;;
79403;SDS011;68858;48.642;9.142;2024-01-15T07:28:28;13.53;;;8.53;;
79403;SDS011;68858;48.642;9.142;2024-01-15T07:30:54;15.50;;;8.53;;
79403;SDS011;68858;48.642;9.142;2024-01-15T07:33:19;13.90;;;8.50;;
79403;SDS011;68858;48.642;9.142;2024-01-15T07:35:44;11.10;;;8.30;;
79403;SDS011;68858;48.642;9.142;2024-01-15T07:38:10;13.63;;;7.57;;
79403;SDS011;68858;48.642;9.142;2024-01-15T07:40:36;12.10;;;7.33;;
79403;SDS011;68858;48.642;9.142;2024-01-15T07:43:02;12.13;;;7.70;;
79403;SDS011;68858;48.642;9.142;2024-01-15T07:45:28;12.27;;;7.17;;
79403;SDS011;68858;48.642;9.142;2024-01-15T07:47:53;12.47;;;7.57;;
79403;SDS011;68858;48.642;9.142;2024-01-15T07:50:18;11.70;;;6.83;;
79403;SDS011;68858;48.642;9.142;2024-01-15T07:52:44;10.50;;;7.20;;
79403;SDS011;68858;48.642;9.142;2024-01-15T07:55:10;12.50;;;7.40;;
79403;SDS011;68858;48.642;9.142;2024-01-15T07:57:35;10.70;;;6.97;;
79403;SDS011;68858;48.642;9.142;2024-01-15T08:00:01;11.13;;;6.20;;
79403;SDS011;68858;48.642;9.142;2024-01-15T08:02:29;11.87;;;7.40;;
79403;SDS011;68858;48.642;9.142;2024-01-15T08:04:55;15.10;;;7.50;;
79403;SDS011;68858;48.642;9.142;2024-01-15T08:07:20;10.13;;;6.83;;
79403;SDS011;68858;48.642;9.142;2024-01-15T08:09:46;11.07;;;6.77;;
79403;SDS011;68858;48.642;9.142;2024-01-15T08:12:13;11.00;;;7.30;;
79403;SDS011;68858;48.642;9.142;2024-01-15T08:14:38;11.83;;;7.37;;
79403;SDS011;68858;48.642;9.142;2024-01-15T08:17:03;9.83;;;6.87;;
79403;SDS011;68858;48.642;9.142;2024-01-15T08:19:29;10.13;;;5.97;;
79403;SDS011;68858;48.642;9.142;2024-01-15T08:21:55;9.97;;;6.40;;
79403;SDS011;68858;48.642;9.142;2024-01-15T08:24:20;10.90;;;6.43;;
79403;SDS011;68858;48.642;9.142;2024-01-15T08:26:47;9.87;;;6.17;;
79403;SDS011;68858;48.642;9.142;2024-01-15T08:29:12;8.37;;;5.83;;
79403;SDS011;68858;48.642;9.142;2024-01-15T08:31:38;11.43;;;6.87;;
79403;SDS011;68858;48.642;9.142;2024-01-15T08:34:05;10.00;;;6.30;;
79403;SDS011;68858;48.642;9.142;2024-01-15T08:36:30;10.20;;;5.97;;
79403;SDS011;68858;48.642;9.142;2024-01-15T08:38:56;11.40;;;6.80;;
79403;SDS011;68858;48.642;9.142;2024-01-15T08:41:21;10.23;;;6.27;;
79403;SDS011;68858;48.642;9.142;2024-01-15T08:43:47;9.00;;;5.80;;
79403;SDS011;68858;48.642;9.142;2024-01-15T08:46:12;9.57;;;5.83;;
79403;SDS011;68858;48.642;9.142;2024-01-15T08:48:38;10.00;;;6.00;;
79403;SDS011;68858;48.642;9.142;2024-01-15T08:51:04;8.30;;;5.67;;
79403;SDS011;68858;48.642;9.142;2024-01-15T08:53:30;9.80;;;6.67;;
79403;SDS011;68858;48.642;9.142;2024-01-15T08:55:55;7.93;;;5.00;;
79403;SDS011;68858;48.642;9.142;2024-01-15T08:58:23;8.50;;;5.67;;
79403;SDS011;68858;48.642;9.142;2024-01-15T09:00:49;9.43;;;5.53;;
79403;SDS011;68858;48.642;9.142;2024-01-15T09:03:15;8.80;;;5.30;;
79403;SDS011;68858;48.642;9.142;2024-01-15T09:05:41;8.10;;;5.03;;
79403;SDS011;68858;48.642;9.142;2024-01-15T09:08:06;9.40;;;5.03;;
79403;SDS011;68858;48.642;9.142;2024-01-15T09:10:32;7.83;;;5.47;;
79403;SDS011;68858;48.642;9.142;2024-01-15T09:12:57;9.30;;;5.97;;
79403;SDS011;68858;48.642;9.142;2024-01-15T09:15:23;7.43;;;5.47;;
79403;SDS011;68858;48.642;9.142;2024-01-15T09:17:50;8.70;;;4.97;;
79403;SDS011;68858;48.642;9.142;2024-01-15T09:20:15;8.13;;;5.70;;
79403;SDS011;68858;48.642;9.142;2024-01-15T09:22:40;10.07;;;5.60;;
79403;SDS011;68858;48.642;9.142;2024-01-15T09:25:07;8.27;;;6.03;;
79403;SDS011;68858;48.642;9.142;2024-01-15T09:27:36;7.03;;;4.83;;
79403;SDS011;68858;48.642;9.142;2024-01-15T09:30:02;7.47;;;5.10;;
79403;SDS011;68858;48.642;9.142;2024-01-15T09:32:28;6.87;;;4.57;;
79403;SDS011;68858;48.642;9.142;2024-01-15T09:34:53;7.23;;;4.30;;
79403;SDS011;68858;48.642;9.142;2024-01-15T09:37:19;7.20;;;4.90;;
79403;SDS011;68858;48.642;9.142;2024-01-15T09:39:44;7.80;;;4.77;;
79403;SDS011;68858;48.642;9.142;2024-01-15T09:42:10;6.90;;;4.37;;
79403;SDS011;68858;48.642;9.142;2024-01-15T09:44:35;7.63;;;4.80;;
79403;SDS011;68858;48.642;9.142;2024-01-15T09:47:01;6.00;;;4.23;;
79403;SDS011;68858;48.642;9.142;2024-01-15T09:49:27;7.17;;;4.40;;
79403;SDS011;68858;48.642;9.142;2024-01-15T09:51:53;6.17;;;4.20;;
79403;SDS011;68858;48.642;9.142;2024-01-15T09:54:21;6.23;;;4.27;;
79403;SDS011;68858;48.642;9.142;2024-01-15T09:56:46;6.77;;;4.23;;
79403;SDS011;68858;48.642;9.142;2024-01-15T09:59:15;6.43;;;4.57;;
79403;SDS011;68858;48.642;9.142;2024-01-15T10:01:41;5.23;;;3.70;;
79403;SDS011;68858;48.642;9.142;2024-01-15T10:04:13;7.37;;;4.30;;
79403;SDS011;68858;48.642;9.142;2024-01-15T10:06:39;6.33;;;3.77;;
79403;SDS011;68858;48.642;9.142;2024-01-15T10:09:12;5.27;;;3.83;;
79403;SDS011;68858;48.642;9.142;2024-01-15T10:11:41;4.63;;;3.43;;
79403;SDS011;68858;48.642;9.142;2024-01-15T10:14:12;7.30;;;4.30;;
79403;SDS011;68858;48.642;9.142;2024-01-15T10:16:42;7.10;;;4.20;;
79403;SDS011;68858;48.642;9.142;2024-01-15T10:19:08;5.00;;;3.87;;
79403;SDS011;68858;48.642;9.142;2024-01-15T10:21:34;6.87;;;4.40;;
79403;SDS011;68858;48.642;9.142;2024-01-15T10:23:59;5.03;;;3.53;;
79403;SDS011;68858;48.642;9.142;2024-01-15T10:26:25;5.90;;;3.50;;
79403;SDS011;68858;48.642;9.142;2024-01-15T10:28:51;6.77;;;4.30;;
79403;SDS011;68858;48.642;9.142;2024-01-15T10:31:18;6.00;;;3.63;;
79403;SDS011;68858;48.642;9.142;2024-01-15T10:33:49;7.50;;;3.80;;
79403;SDS011;68858;48.642;9.142;2024-01-15T10:36:16;4.70;;;3.67;;
79403;SDS011;68858;48.642;9.142;2024-01-15T10:38:49;5.33;;;3.60;;
79403;SDS011;68858;48.642;9.142;2024-01-15T10:41:21;6.90;;;3.90;;
79403;SDS011;68858;48.642;9.142;2024-01-15T10:43:46;6.00;;;3.90;;
79403;SDS011;68858;48.642;9.142;2024-01-15T10:46:18;6.67;;;3.90;;
79403;SDS011;68858;48.642;9.142;2024-01-15T10:48:46;6.07;;;3.80;;
79403;SDS011;68858;48.642;9.142;2024-01-15T10:51:12;5.93;;;3.50;;
79403;SDS011;68858;48.642;9.142;2024-01-15T10:53:40;5.33;;;3.83;;
79403;SDS011;68858;48.642;9.142;2024-01-15T10:56:24;6.60;;;3.87;;
79403;SDS011;68858;48.642;9.142;2024-01-15T10:58:50;7.00;;;3.70;;
79403;SDS011;68858;48.642;9.142;2024-01-15T11:01:17;5.17;;;3.53;;
79403;SDS011;68858;48.642;9.142;2024-01-15T11:06:43;8.33;;;4.47;;
79403;SDS011;68858;48.642;9.142;2024-01-15T11:09:16;7.47;;;4.53;;
79403;SDS011;68858;48.642;9.142;2024-01-15T11:11:44;5.27;;;3.83;;
79403;SDS011;68858;48.642;9.142;2024-01-15T11:14:11;6.10;;;4.40;;
79403;SDS011;68858;48.642;9.142;2024-01-15T11:17:02;6.77;;;4.20;;
79403;SDS011;68858;48.642;9.142;2024-01-15T11:25:34;5.30;;;4.23;;
79403;SDS011;68858;48.642;9.142;2024-01-15T11:41:38;6.03;;;4.13;;
79403;SDS011;68858;48.642;9.142;2024-01-15T11:44:04;5.10;;;3.60;;
79403;SDS011;68858;48.642;9.142;2024-01-15T11:46:30;7.83;;;4.60;;
79403;SDS011;68858;48.642;9.142;2024-01-15T11:49:01;5.87;;;3.90;;
79403;SDS011;68858;48.642;9.142;2024-01-15T11:51:48;5.23;;;4.03;;
79403;SDS011;68858;48.642;9.142;2024-01-15T11:54:14;5.63;;;3.80;;
79403;SDS011;68858;48.642;9.142;2024-01-15T11:56:40;4.83;;;4.13;;
79403;SDS011;68858;48.642;9.142;2024-01-15T11:59:17;6.60;;;4.60;;
79403;SDS011;68858;48.642;9.142;2024-01-15T12:01:43;8.47;;;4.70;;
79403;SDS011;68858;48.642;9.142;2024-01-15T12:04:20;7.37;;;4.77;;
79403;SDS011;68858;48.642;9.142;2024-01-15T12:06:56;5.60;;;4.07;;
79403;SDS011;68858;48.642;9.142;2024-01-15T12:09:21;7.20;;;4.17;;
79403;SDS011;68858;48.642;9.142;2024-01-15T12:11:57;7.63;;;4.83;;
79403;SDS011;68858;48.642;9.142;2024-01-15T12:14:41;8.07;;;5.23;;
79403;SDS011;68858;48.642;9.142;2024-01-15T12:17:06;7.83;;;4.90;;
79403;SDS011;68858;48.642;9.142;2024-01-15T12:19:31;7.50;;;5.30;;
79403;SDS011;68858;48.642;9.142;2024-01-15T12:24:52;8.37;;;5.87;;
79403;SDS011;68858;48.642;9.142;2024-01-15T12:27:18;6.43;;;4.30;;
79403;SDS011;68858;48.642;9.142;2024-01-15T12:29:45;8.43;;;5.37;;
79403;SDS011;68858;48.642;9.142;2024-01-15T12:32:12;6.70;;;5.90;;
79403;SDS011;68858;48.642;9.142;2024-01-15T12:34:37;9.47;;;5.20;;
79403;SDS011;68858;48.642;9.142;2024-01-15T12:37:03;7.70;;;5.17;;
79403;SDS011;68858;48.642;9.142;2024-01-15T12:39:29;8.63;;;5.97;;
79403;SDS011;68858;48.642;9.142;2024-01-15T12:41:57;6.10;;;4.73;;
79403;SDS011;68858;48.642;9.142;2024-01-15T12:44:23;7.90;;;5.67;;
79403;SDS011;68858;48.642;9.142;2024-01-15T12:46:49;7.57;;;5.17;;
79403;SDS011;68858;48.642;9.142;2024-01-15T12:49:14;7.40;;;5.53;;
79403;SDS011;68858;48.642;9.142;2024-01-15T12:51:40;8.20;;;5.17;;
79403;SDS011;68858;48.642;9.142;2024-01-15T12:54:07;8.23;;;5.77;;
79403;SDS011;68858;48.642;9.142;2024-01-15T12:56:33;9.57;;;6.07;;
79403;SDS011;68858;48.642;9.142;2024-01-15T12:58:59;10.03;;;6.07;;
79403;SDS011;68858;48.642;9.142;2024-01-15T13:01:24;12.60;;;7.37;;
79403;SDS011;68858;48.642;9.142;2024-01-15T13:03:50;11.43;;;6.90;;
79403;SDS011;68858;48.642;9.142;2024-01-15T13:06:15;8.13;;;6.00;;
79403;SDS011;68858;48.642;9.142;2024-01-15T13:08:41;8.80;;;5.87;;
79403;SDS011;68858;48.642;9.142;2024-01-15T13:11:07;10.23;;;6.27;;
79403;SDS011;68858;48.642;9.142;2024-01-15T13:13:32;11.20;;;6.80;;
79403;SDS011;68858;48.642;9.142;2024-01-15T13:15:59;12.67;;;6.60;;
79403;SDS011;68858;48.642;9.142;2024-01-15T13:18:26;9.87;;;6.97;;
79403;SDS011;68858;48.642;9.142;2024-01-15T13:20:51;10.03;;;6.83;;
79403;SDS011;68858;48.642;9.142;2024-01-15T13:23:17;8.93;;;6.87;;
79403;SDS011;68858;48.642;9.142;2024-01-15T13:25:42;10.40;;;6.37;;
79403;SDS011;68858;48.642;9.142;2024-01-15T13:28:08;9.20;;;6.00;;
79403;SDS011;68858;48.642;9.142;2024-01-15T13:30:33;11.03;;;6.03;;
79403;SDS011;68858;48.642;9.142;2024-01-15T13:32:59;11.77;;;6.13;;
79403;SDS011;68858;48.642;9.142;2024-01-15T13:35:31;10.17;;;6.70;;
79403;SDS011;68858;48.642;9.142;2024-01-15T13:37:58;9.40;;;6.87;;
79403;SDS011;68858;48.642;9.142;2024-01-15T13:40:23;11.13;;;6.67;;
79403;SDS011;68858;48.642;9.142;2024-01-15T13:42:50;12.03;;;6.40;;
79403;SDS011;68858;48.642;9.142;2024-01-15T13:45:17;9.70;;;6.87;;
79403;SDS011;68858;48.642;9.142;2024-01-15T13:47:43;11.07;;;6.37;;
79403;SDS011;68858;48.642;9.142;2024-01-15T13:50:09;8.83;;;6.23;;
79403;SDS011;68858;48.642;9.142;2024-01-15T13:52:37;11.57;;;6.63;;
79403;SDS011;68858;48.642;9.142;2024-01-15T13:55:02;9.73;;;6.40;;
79403;SDS011;68858;48.642;9.142;2024-01-15T13:57:28;9.07;;;6.33;;
79403;SDS011;68858;48.642;9.142;2024-01-15T13:59:53;10.20;;;6.60;;
79403;SDS011;68858;48.642;9.142;2024-01-15T14:02:20;9.80;;;7.27;;
79403;SDS011;68858;48.642;9.142;2024-01-15T14:04:45;11.13;;;6.70;;
79403;SDS011;68858;48.642;9.142;2024-01-15T14:07:11;10.20;;;6.17;;
79403;SDS011;68858;48.642;9.142;2024-01-15T14:09:36;10.40;;;6.40;;
79403;SDS011;68858;48.642;9.142;2024-01-15T14:12:03;13.27;;;7.43;;
79403;SDS011;68858;48.642;9.142;2024-01-15T14:14:28;7.73;;;5.83;;
79403;SDS011;68858;48.642;9.142;2024-01-15T14:16:54;10.53;;;6.57;;
79403;SDS011;68858;48.642;9.142;2024-01-15T14:19:19;13.53;;;7.37;;
79403;SDS011;68858;48.642;9.142;2024-01-15T14:21:46;11.07;;;7.83;;
79403;SDS011;68858;48.642;9.142;2024-01-15T14:24:11;8.90;;;6.67;;
79403;SDS011;68858;48.642;9.142;2024-01-15T14:26:37;10.63;;;7.40;;
79403;SDS011;68858;48.642;9.142;2024-01-15T14:29:03;10.47;;;7.47;;
79403;SDS011;68858;48.642;9.142;2024-01-15T14:31:28;8.70;;;6.63;;
79403;SDS011;68858;48.642;9.142;2024-01-15T14:33:54;12.27;;;7.93;;
79403;SDS011;68858;48.642;9.142;2024-01-15T14:36:25;10.57;;;7.53;;
79403;SDS011;68858;48.642;9.142;2024-01-15T14:38:50;9.57;;;5.97;;
79403;SDS011;68858;48.642;9.142;2024-01-15T14:41:16;10.90;;;7.17;;
79403;SDS011;68858;48.642;9.142;2024-01-15T14:43:44;17.63;;;10.23;;
79403;SDS011;68858;48.642;9.142;2024-01-15T14:46:11;9.97;;;7.13;;
79403;SDS011;68858;48.642;9.142;2024-01-15T14:48:36;10.83;;;6.87;;
79403;SDS011;68858;48.642;9.142;2024-01-15T14:51:02;9.60;;;7.07;;
79403;SDS011;68858;48.642;9.142;2024-01-15T14:53:28;8.53;;;6.03;;
79403;SDS011;68858;48.642;9.142;2024-01-15T14:55:54;10.57;;;6.83;;
79403;SDS011;68858;48.642;9.142;2024-01-15T14:58:19;12.10;;;7.57;;